Have a Safe July 4th! 

Flight Track Log - Related Links

Times and Time Zones

All times are in EDT time to prevent confusion due to time zone crossing. See the FLG3729 flight status page for this flight to view local times or setup timezone preferences in your user account.

Time Position Orientation Groundspeed Altitude Reporting Facility
EDT Latitude Longitude Course Direction KTS MPH feet Rate Location/Type
Tue 05:55:01 AM 42.7714 -73.8092 304° West 187 215 900  Level Boston Center
Tue 05:55:43 AM 42.8047 -73.8211 345° North 171 197 2,500 2,267 Climbing Boston Center
Tue 05:56:31 AM 42.8375 -73.8558 322° Northwest 196 226 4,300 1,833 Climbing Boston Center
Tue 05:57:00 AM 42.8090 -74.1624 281° West  Level FlightAware Approximate
Tue 05:57:31 AM 42.8847 -73.9108 320° Northwest 246 283 5,800  Level Boston Center
Tue 05:58:00 AM 42.8268 -74.2875 281° West  Level FlightAware Approximate
Tue 05:58:31 AM 42.9361 -73.9686 321° Northwest 255 293 8,100  Level Boston Center
Tue 05:59:00 AM 42.8465 -74.4122 283° West  Level FlightAware Approximate
Tue 05:59:31 AM 42.9831 -74.0550 307° West 260 299 10,300  Level Boston Center
Tue 06:00:00 AM 42.8680 -74.5361 304° West  Level FlightAware Approximate
Tue 06:00:31 AM 42.9919 -74.1575 277° West 286 329 11,500  Level Boston Center
Tue 06:01:31 AM 43.0042 -74.2942 277° West 316 364 13,000 1,273 Climbing Boston Center
Tue 06:02:43 AM 43.0147 -74.4108 277° West 342 394 14,300 1,409 Climbing Boston Center
Tue 06:03:43 AM 43.0286 -74.5731 277° West 356 410 16,100 1,650 Climbing Boston Center
Tue 06:04:43 AM 43.0425 -74.7186 277° West 356 410 17,600 1,150 Climbing Boston Center
Tue 06:05:43 AM 43.0525 -74.8439 276° West 361 415 18,400 900 Climbing Boston Center
Tue 06:06:43 AM 43.0639 -74.9836 276° West 371 427 19,400 1,000 Climbing Boston Center
Tue 06:07:43 AM 43.0753 -75.1264 276° West 371 427 20,400 850 Climbing Boston Center
Tue 06:08:43 AM 43.0864 -75.2689 276° West 371 427 21,100 700 Climbing Boston Center
Tue 06:09:43 AM 43.0994 -75.4144 277° West 378 435 21,800 700 Climbing Boston Center
Tue 06:10:43 AM 43.1119 -75.5631 277° West 388 447 22,500 600 Climbing Boston Center
Tue 06:11:43 AM 43.1225 -75.7117 276° West 393 452 23,000 500 Climbing Boston Center
Tue 06:12:43 AM 43.1347 -75.8603 276° West 393 452 23,500 500 Climbing Boston Center
Tue 06:13:43 AM 43.1469 -76.0119 276° West 398 458 24,000 500 Climbing Boston Center
Tue 06:14:43 AM 43.1586 -76.1633 276° West 403 464 24,500 486 Climbing Boston Center
Tue 06:16:11 AM 43.1450 -76.3886 265° West 399 459 25,200 486 Climbing Cleveland Center
Tue 06:17:11 AM 43.1317 -76.5403 263° West 405 466 25,700 600 Climbing Cleveland Center
Tue 06:18:11 AM 43.1164 -76.7092 263° West 410 472 26,400 600 Climbing Cleveland Center
Tue 06:19:11 AM 43.1028 -76.8608 263° West 410 472 26,900 500 Climbing Cleveland Center
Tue 06:20:11 AM 43.0889 -77.0153 263° West 410 472 27,400 500 Climbing Cleveland Center
Tue 06:21:11 AM 43.0767 -77.1608 263° West 410 472 27,900 300 Climbing Cleveland Center
Tue 06:22:11 AM 43.0622 -77.3153 263° West 410 472 28,000 50 Climbing Cleveland Center
Tue 06:23:11 AM 43.0478 -77.4722 263° West 410 472 28,000  Level Cleveland Center
Tue 06:24:11 AM 43.0333 -77.6319 263° West 410 472 28,000  Level Cleveland Center
Tue 06:25:11 AM 43.0183 -77.7861 262° West 415 478 28,000  Level Cleveland Center
Tue 06:26:11 AM 43.0031 -77.9344 262° West 409 471 28,000  Level Cleveland Center
Tue 06:27:11 AM 42.9875 -78.0828 262° West 409 471 28,000  Level Cleveland Center
Tue 06:28:11 AM 42.9739 -78.2253 263° West 399 459 28,000  Level Cleveland Center
Tue 06:29:11 AM 42.9603 -78.3761 263° West 394 453 28,000  Level Cleveland Center
Tue 06:30:11 AM 42.9442 -78.5183 261° West 389 448 28,000  Level Cleveland Center
Tue 06:31:11 AM 42.9278 -78.6608 261° West 389 448 28,000  Level Cleveland Center
Tue 06:32:11 AM 42.9072 -78.8058 259° West 389 448 28,000  Level Cleveland Center
Tue 06:33:11 AM 42.8864 -78.9511 259° West 389 448 28,000  Level Cleveland Center
Tue 06:34:11 AM 42.8633 -79.0961 258° West 389 448 28,000  Level Cleveland Center
Tue 06:35:11 AM 42.8422 -79.2439 259° West 394 453 28,000  Level Cleveland Center
Tue 06:36:11 AM 42.8231 -79.3914 260° West 394 453 28,000  Level Cleveland Center
Tue 06:37:11 AM 42.7994 -79.5419 258° West 394 453 28,000  Level Cleveland Center
Tue 06:38:11 AM 42.7778 -79.6978 259° West 405 466 28,000  Level Cleveland Center
Tue 06:39:11 AM 42.7539 -79.8481 258° West 411 473 28,000  Level Cleveland Center
Tue 06:40:11 AM 42.7422 -80.0064 264° West 416 479 28,000  Level Cleveland Center
Tue 06:41:11 AM 42.7367 -80.1647 267° West 422 486 28,000  Level Cleveland Center
Tue 06:42:11 AM 42.7308 -80.3231 267° West 422 486 28,000  Level Cleveland Center
Tue 06:43:11 AM 42.7247 -80.4814 267° West 422 486 28,000  Level Cleveland Center
Tue 06:44:11 AM 42.7186 -80.6369 267° West 422 486 28,000 -200 Level Cleveland Center
Tue 06:45:11 AM 42.7122 -80.7978 267° West 428 493 27,600 -700 Descending Cleveland Center
Tue 06:46:11 AM 42.6992 -80.9506 263° West 417 480 26,600 -1,000 Descending Cleveland Center
Tue 06:47:11 AM 42.6819 -81.0972 261° West 410 472 25,600 -1,150 Descending Cleveland Center
Tue 06:48:11 AM 42.6667 -81.2411 262° West 393 452 24,300 -1,400 Descending Cleveland Center
Tue 06:49:11 AM 42.6492 -81.3878 261° West 393 452 22,800 -1,450 Descending Cleveland Center
Tue 06:50:11 AM 42.6314 -81.5314 260° West 393 452 21,400 -1,400 Descending Cleveland Center
Tue 06:51:11 AM 42.6156 -81.6694 261° West 385 443 20,000 -1,150 Descending Cleveland Center
Tue 06:52:11 AM 42.5975 -81.8100 260° West 376 433 19,100 -1,300 Descending Cleveland Center
Tue 06:53:11 AM 42.5814 -81.9339 260° West 376 433 17,400 -1,600 Descending Cleveland Center
Tue 06:54:11 AM 42.5650 -82.0800 261° West 382 440 15,900 -1,550 Descending Cleveland Center
Tue 06:55:11 AM 42.5486 -82.2178 261° West 389 448 14,300 -1,800 Descending Cleveland Center
Tue 06:55:51 AM 42.5367 -82.3161 261° West 330 380 12,900 -1,307 Descending Cleveland Center
Tue 06:56:52 AM 42.5222 -82.4453 261° West 355 409 12,100 -386 Descending Cleveland Center
Tue 06:58:11 AM 42.4883 -82.5992 253° West 355 409 12,000 -298 Descending Cleveland Center
Tue 06:58:53 AM 42.4531 -82.7050 246° West 364 419 11,500 -932 Descending Cleveland Center
Tue 06:59:54 AM 42.4156 -82.8192 246° West 302 348 10,400 -1,180 Descending Cleveland Center
Tue 07:00:55 AM 42.4092 -82.9231 265° West 260 299 9,100 -1,574 Descending Cleveland Center
Tue 07:01:56 AM 42.3906 -83.0178 255° West 256 295 7,200 -1,820 Descending Cleveland Center
Tue 07:02:57 AM 42.3700 -83.1042 252° West 240 276 5,400 -1,587 Descending Cleveland Center
Tue 07:03:57 AM 42.3556 -83.1878 257° West 196 226 4,000 -1,400 Descending Cleveland Center

Login

Don't have an account? Register now (free) for customized features, flight alerts, and more!